createdAt,value
2022-12-20T00:01:26.534Z,8.10
2022-12-20T00:03:56.295Z,8.10
2022-12-20T00:06:24.818Z,8.10
2022-12-20T00:09:00.744Z,8.20
2022-12-20T00:11:30.164Z,8.10
2022-12-20T00:13:58.421Z,8.10
2022-12-20T00:16:28.744Z,8.20
2022-12-20T00:18:59.796Z,8.20
2022-12-20T00:21:28.129Z,8.20
2022-12-20T00:23:56.004Z,8.20
2022-12-20T00:26:27.983Z,8.20
2022-12-20T00:28:55.665Z,8.20
2022-12-20T00:31:26.526Z,8.20
2022-12-20T00:33:55.718Z,8.20
2022-12-20T00:36:25.105Z,8.20
2022-12-20T00:38:55.863Z,8.20
2022-12-20T00:41:26.606Z,8.20
2022-12-20T00:43:54.090Z,8.20
2022-12-20T00:46:24.751Z,8.30
2022-12-20T00:48:54.514Z,8.30
2022-12-20T00:51:25.880Z,8.30
2022-12-20T00:53:54.126Z,8.30
2022-12-20T00:56:21.570Z,8.30
2022-12-20T00:58:49.051Z,8.30
2022-12-20T01:01:27.538Z,8.30
2022-12-20T01:03:55.137Z,8.30
2022-12-20T01:06:23.883Z,8.40
2022-12-20T01:08:51.365Z,8.40
2022-12-20T01:11:25.724Z,8.40
2022-12-20T01:13:56.323Z,8.40
2022-12-20T01:16:31.477Z,8.40
2022-12-20T01:18:58.457Z,8.40
2022-12-20T01:21:27.504Z,8.40
2022-12-20T01:23:55.862Z,8.40
2022-12-20T01:26:26.956Z,8.40
2022-12-20T01:28:57.484Z,8.40
2022-12-20T01:31:25.027Z,8.40
2022-12-20T01:33:52.849Z,8.40
2022-12-20T01:36:26.689Z,8.50
2022-12-20T01:39:03.956Z,8.50
2022-12-20T01:41:33.016Z,8.40
2022-12-20T01:44:27.475Z,8.50
2022-12-20T01:46:55.360Z,8.50
2022-12-20T01:49:32.785Z,8.50
2022-12-20T01:52:17.868Z,8.50
2022-12-20T01:54:58.526Z,8.50
2022-12-20T01:57:36.004Z,8.60
2022-12-20T02:00:05.857Z,8.60
2022-12-20T02:02:42.220Z,8.60
2022-12-20T02:05:10.257Z,8.60
2022-12-20T02:07:39.066Z,8.60
2022-12-20T02:10:07.979Z,8.60
2022-12-20T02:12:45.289Z,8.60
2022-12-20T02:15:32.837Z,8.60
2022-12-20T02:18:23.064Z,8.60
2022-12-20T02:21:16.415Z,8.70
2022-12-20T02:24:16.473Z,8.60
2022-12-20T02:27:21.586Z,8.70
2022-12-20T02:30:18.728Z,8.70
2022-12-20T02:33:04.689Z,8.70
2022-12-20T02:35:35.797Z,8.70
2022-12-20T02:38:34.449Z,8.70
2022-12-20T02:41:12.319Z,8.70
2022-12-20T02:44:01.879Z,8.80
2022-12-20T02:46:29.791Z,8.80
2022-12-20T02:49:01.953Z,8.80
2022-12-20T02:51:32.860Z,8.80
2022-12-20T02:54:00.624Z,8.80
2022-12-20T02:56:38.197Z,8.80
2022-12-20T02:59:15.300Z,8.80
2022-12-20T03:01:50.543Z,8.90
2022-12-20T03:04:20.615Z,8.90
2022-12-20T03:07:05.797Z,8.90
2022-12-20T03:09:38.113Z,8.90
2022-12-20T03:12:07.987Z,9.00
2022-12-20T03:14:38.107Z,9.00
2022-12-20T03:17:08.684Z,9.00
2022-12-20T03:19:38.796Z,9.00
2022-12-20T03:22:06.595Z,9.00
2022-12-20T03:24:34.056Z,9.00
2022-12-20T03:27:01.943Z,9.20
2022-12-20T03:29:29.205Z,9.10
2022-12-20T03:31:56.264Z,9.00
2022-12-20T03:34:23.713Z,9.10
2022-12-20T03:36:50.743Z,9.30
2022-12-20T03:39:17.937Z,9.10
2022-12-20T03:41:45.032Z,9.10
2022-12-20T03:44:16.402Z,9.20
2022-12-20T03:46:43.613Z,9.20
2022-12-20T03:49:10.919Z,9.20
2022-12-20T03:51:44.957Z,9.20
2022-12-20T03:54:12.363Z,9.20
2022-12-20T03:56:55.855Z,9.20
2022-12-20T03:59:22.954Z,9.30
2022-12-20T04:01:50.217Z,9.30
2022-12-20T04:04:17.367Z,9.30
2022-12-20T04:06:44.948Z,9.30
2022-12-20T04:09:12.195Z,9.30
2022-12-20T04:11:45.477Z,9.40
2022-12-20T04:14:15.096Z,9.40
2022-12-20T04:16:43.635Z,9.40
2022-12-20T04:19:11.988Z,9.40
2022-12-20T04:21:45.568Z,9.40
2022-12-20T04:24:13.665Z,9.40
2022-12-20T04:26:56.029Z,9.40
2022-12-20T04:29:23.425Z,9.40
2022-12-20T04:31:51.010Z,9.40
2022-12-20T04:34:19.176Z,9.40
2022-12-20T04:36:46.462Z,9.40
2022-12-20T04:39:20.069Z,9.40
2022-12-20T04:42:05.458Z,9.40
2022-12-20T04:44:33.438Z,9.70
2022-12-20T04:47:00.641Z,9.40
2022-12-20T04:49:28.951Z,9.30
2022-12-20T04:52:16.018Z,9.30
2022-12-20T04:54:43.295Z,9.30
2022-12-20T04:57:16.581Z,9.20
2022-12-20T04:59:44.176Z,9.20
2022-12-20T05:02:13.532Z,9.20
2022-12-20T05:04:51.579Z,9.20
2022-12-20T05:07:18.627Z,9.10
2022-12-20T05:09:51.282Z,9.10
2022-12-20T05:12:18.723Z,9.10
2022-12-20T05:14:45.756Z,9.00
2022-12-20T05:17:15.799Z,9.00
2022-12-20T05:19:42.801Z,9.00
2022-12-20T05:22:43.931Z,9.00
2022-12-20T05:25:32.246Z,8.90
2022-12-20T05:28:04.052Z,8.90
2022-12-20T05:30:34.712Z,8.90
2022-12-20T05:33:01.952Z,8.90
2022-12-20T05:35:30.291Z,8.90
2022-12-20T05:38:04.080Z,8.90
2022-12-20T05:40:32.001Z,8.90
2022-12-20T05:42:59.789Z,8.90
2022-12-20T05:45:35.897Z,8.90
2022-12-20T05:48:08.647Z,8.90
2022-12-20T05:50:39.419Z,8.90
2022-12-20T05:53:24.126Z,9.10
2022-12-20T05:55:54.535Z,8.90
2022-12-20T05:58:26.259Z,8.90
2022-12-20T06:01:04.849Z,9.00
2022-12-20T06:03:38.338Z,8.90
2022-12-20T06:06:14.651Z,9.00
2022-12-20T06:08:44.914Z,9.00
2022-12-20T06:11:18.015Z,9.00
2022-12-20T06:13:50.432Z,9.10
2022-12-20T06:16:20.799Z,9.10
2022-12-20T06:18:47.968Z,9.10
2022-12-20T06:21:16.501Z,9.20
2022-12-20T06:23:44.718Z,9.20
2022-12-20T06:26:13.733Z,9.10
2022-12-20T06:28:54.598Z,9.30
2022-12-20T06:31:25.546Z,9.30
2022-12-20T06:33:54.852Z,9.30
2022-12-20T06:36:23.959Z,9.30
2022-12-20T06:38:51.940Z,9.40
2022-12-20T06:41:19.441Z,9.40
2022-12-20T06:43:47.131Z,9.40
2022-12-20T06:46:14.536Z,9.50
2022-12-20T06:48:41.601Z,9.50
2022-12-20T06:51:11.232Z,9.50
2022-12-20T06:53:38.604Z,9.50
2022-12-20T06:56:06.487Z,9.50
2022-12-20T06:58:33.383Z,9.50
2022-12-20T07:01:00.868Z,9.50
2022-12-20T07:03:28.563Z,9.40
2022-12-20T07:05:56.177Z,9.40
2022-12-20T07:08:24.563Z,9.40
2022-12-20T07:10:52.767Z,9.40
2022-12-20T07:13:20.338Z,9.40
2022-12-20T07:15:47.526Z,9.40
2022-12-20T07:18:14.471Z,9.40
2022-12-20T07:20:41.887Z,9.40
2022-12-20T07:23:08.812Z,9.40
2022-12-20T07:25:36.137Z,9.50
2022-12-20T07:28:04.183Z,9.50
2022-12-20T07:30:31.244Z,9.50
2022-12-20T07:32:58.947Z,9.50
2022-12-20T07:35:26.656Z,9.50
2022-12-20T07:37:53.821Z,9.60
2022-12-20T07:40:20.790Z,9.60
2022-12-20T07:42:49.036Z,9.60
2022-12-20T07:45:16.420Z,9.60
2022-12-20T07:47:43.993Z,9.60
2022-12-20T07:50:12.047Z,9.70
2022-12-20T07:52:41.435Z,9.70
2022-12-20T07:55:10.555Z,9.70
2022-12-20T07:57:58.904Z,9.70
2022-12-20T08:00:25.929Z,9.70
2022-12-20T08:03:32.083Z,9.70
2022-12-20T08:06:03.985Z,9.80
2022-12-20T08:08:33.979Z,9.80
2022-12-20T08:11:04.183Z,9.80
2022-12-20T08:13:32.962Z,9.80
2022-12-20T08:16:00.874Z,9.80
2022-12-20T08:18:27.842Z,9.80
2022-12-20T08:20:54.936Z,9.80
2022-12-20T08:23:21.913Z,9.90
2022-12-20T08:25:49.135Z,10.10
2022-12-20T08:28:16.460Z,9.90
2022-12-20T08:30:43.584Z,9.90
2022-12-20T08:33:11.618Z,9.90
2022-12-20T08:35:38.567Z,9.90
2022-12-20T08:38:05.687Z,10.00
2022-12-20T08:40:32.715Z,10.10
2022-12-20T08:43:03.773Z,10.00
2022-12-20T08:45:35.255Z,10.00
2022-12-20T08:48:02.306Z,10.00
2022-12-20T08:50:29.563Z,10.00
2022-12-20T08:52:56.496Z,10.00
2022-12-20T08:55:29.142Z,10.10
2022-12-20T08:57:56.934Z,10.10
2022-12-20T09:00:24.091Z,10.10
2022-12-20T09:02:52.042Z,10.10
2022-12-20T09:05:19.420Z,10.10
2022-12-20T09:07:46.556Z,10.10
2022-12-20T09:10:14.938Z,10.20
2022-12-20T09:12:41.950Z,10.20
2022-12-20T09:15:10.156Z,10.40
2022-12-20T09:17:37.246Z,10.20
2022-12-20T09:20:05.344Z,10.30
2022-12-20T09:22:32.224Z,10.30
2022-12-20T09:24:59.910Z,10.40
2022-12-20T09:27:26.791Z,10.50
2022-12-20T09:29:53.786Z,10.50
2022-12-20T09:32:20.793Z,10.50
2022-12-20T09:34:48.351Z,10.60
2022-12-20T09:37:15.325Z,10.70
2022-12-20T09:39:42.345Z,10.70
2022-12-20T09:42:10.040Z,10.80
2022-12-20T09:44:41.360Z,10.90
2022-12-20T09:47:17.165Z,11.00
2022-12-20T09:49:50.015Z,11.10
2022-12-20T09:52:41.675Z,11.20
2022-12-20T09:55:19.893Z,11.40
2022-12-20T09:57:56.055Z,11.50
2022-12-20T10:00:23.631Z,11.70
2022-12-20T10:05:56.611Z,11.90
2022-12-20T10:08:59.804Z,12.20
2022-12-20T10:12:12.920Z,12.40
2022-12-20T10:14:57.966Z,12.70
2022-12-20T10:17:50.022Z,13.00
2022-12-20T10:20:32.819Z,13.30
2022-12-20T10:23:15.309Z,13.50
2022-12-20T10:25:43.470Z,13.70
2022-12-20T10:28:16.800Z,13.80
2022-12-20T10:30:44.157Z,13.80
2022-12-20T10:33:22.454Z,13.80
2022-12-20T10:35:50.702Z,13.80
2022-12-20T10:38:18.445Z,13.70
2022-12-20T10:41:19.984Z,13.70
2022-12-20T10:43:50.101Z,13.60
2022-12-20T10:46:17.464Z,13.60
2022-12-20T10:48:48.121Z,13.70
2022-12-20T10:51:22.399Z,13.70
2022-12-20T10:54:04.166Z,13.70
2022-12-20T10:56:38.761Z,13.70
2022-12-20T10:59:17.963Z,13.90
2022-12-20T11:01:47.593Z,14.20
2022-12-20T11:04:39.478Z,14.50
2022-12-20T11:07:26.946Z,14.90
2022-12-20T11:10:08.918Z,15.10
2022-12-20T11:12:36.117Z,15.80
2022-12-20T11:15:20.543Z,16.10
2022-12-20T11:18:32.020Z,16.30
2022-12-20T11:21:28.961Z,16.50
2022-12-20T11:24:49.935Z,16.50
2022-12-20T11:27:38.214Z,16.50
2022-12-20T11:30:14.472Z,16.40
2022-12-20T11:33:05.070Z,16.30
2022-12-20T11:35:53.496Z,16.00
2022-12-20T11:38:48.516Z,16.00
2022-12-20T11:41:57.998Z,15.80
2022-12-20T11:45:14.723Z,15.70
2022-12-20T11:47:44.427Z,15.50
2022-12-20T11:50:31.618Z,15.40
2022-12-20T11:53:41.347Z,15.30
2022-12-20T11:56:22.156Z,15.20
2022-12-20T11:59:15.072Z,15.20
2022-12-20T12:02:09.427Z,15.10
2022-12-20T12:04:57.427Z,15.00
2022-12-20T12:07:30.881Z,15.00
2022-12-20T12:10:14.107Z,15.00
2022-12-20T12:12:48.748Z,14.90
2022-12-20T12:15:16.892Z,14.90
2022-12-20T12:18:03.891Z,14.90
2022-12-20T12:21:08.310Z,14.80
2022-12-20T12:24:02.219Z,14.80
2022-12-20T12:26:39.447Z,14.80
2022-12-20T12:29:17.889Z,14.80
2022-12-20T12:31:58.342Z,14.70
2022-12-20T12:35:03.714Z,14.70
2022-12-20T12:38:02.682Z,14.60
2022-12-20T12:40:38.115Z,14.60
2022-12-20T12:43:36.490Z,14.50
2022-12-20T12:46:30.573Z,14.40
2022-12-20T12:48:59.061Z,14.30
2022-12-20T12:51:33.446Z,14.30
2022-12-20T12:54:29.389Z,14.40
2022-12-20T12:57:11.970Z,14.20
2022-12-20T12:59:38.874Z,14.10
2022-12-20T13:02:15.262Z,14.20
2022-12-20T13:05:25.666Z,14.20
2022-12-20T13:07:53.534Z,14.10
2022-12-20T13:10:40.629Z,14.10
2022-12-20T13:13:22.858Z,13.90
2022-12-20T13:15:52.612Z,14.00
2022-12-20T13:18:25.505Z,14.00
2022-12-20T13:21:29.537Z,14.00
2022-12-20T13:24:37.959Z,14.00
2022-12-20T13:27:24.104Z,13.90
2022-12-20T13:30:12.528Z,13.90
2022-12-20T13:32:48.816Z,13.90
2022-12-20T13:35:24.956Z,13.80
2022-12-20T13:38:05.740Z,13.80
2022-12-20T13:40:47.327Z,13.70
2022-12-20T13:43:30.363Z,13.60
2022-12-20T13:46:14.889Z,13.60
2022-12-20T13:48:53.208Z,13.50
2022-12-20T13:51:27.785Z,13.50
2022-12-20T13:54:01.288Z,13.40
2022-12-20T13:56:28.577Z,13.30
2022-12-20T13:58:59.063Z,13.30
2022-12-20T14:01:27.095Z,13.10
2022-12-20T14:03:54.479Z,13.10
2022-12-20T14:06:27.100Z,13.10
2022-12-20T14:08:54.427Z,13.00
2022-12-20T14:11:28.236Z,13.20
2022-12-20T14:14:01.207Z,12.90
2022-12-20T14:16:32.678Z,12.90
2022-12-20T14:19:13.886Z,12.80
2022-12-20T14:21:45.071Z,12.80
2022-12-20T14:24:20.077Z,12.80
2022-12-20T14:26:51.904Z,12.70
2022-12-20T14:29:27.357Z,12.70
2022-12-20T14:31:54.312Z,12.70
2022-12-20T14:34:39.848Z,12.60
2022-12-20T14:37:27.184Z,12.70
2022-12-20T14:39:58.190Z,12.50
2022-12-20T14:42:34.529Z,12.40
2022-12-20T14:45:10.831Z,12.30
2022-12-20T14:47:42.722Z,12.40
2022-12-20T14:50:24.871Z,12.40
2022-12-20T14:52:51.920Z,12.40
2022-12-20T14:55:28.964Z,12.30
2022-12-20T14:57:57.878Z,12.30
2022-12-20T15:00:29.848Z,12.30
2022-12-20T15:02:57.268Z,12.30
2022-12-20T15:05:36.725Z,12.20
2022-12-20T15:08:34.639Z,12.20
2022-12-20T15:11:24.122Z,12.10
2022-12-20T15:13:54.813Z,12.10
2022-12-20T15:16:30.244Z,12.10
2022-12-20T15:19:02.120Z,12.10
2022-12-20T15:21:37.255Z,12.10
2022-12-20T15:24:10.910Z,12.10
2022-12-20T15:26:38.535Z,12.00
2022-12-20T15:29:06.982Z,12.00
2022-12-20T15:31:36.456Z,12.00
2022-12-20T15:34:32.669Z,11.90
2022-12-20T15:37:00.377Z,12.00
2022-12-20T15:39:28.603Z,11.90
2022-12-20T15:41:58.922Z,11.90
2022-12-20T15:44:29.541Z,11.90
2022-12-20T15:46:57.308Z,11.90
2022-12-20T15:49:33.416Z,11.80
2022-12-20T15:52:00.613Z,11.80
2022-12-20T15:54:37.074Z,11.80
2022-12-20T15:57:10.315Z,11.80
2022-12-20T16:02:27.411Z,11.60
2022-12-20T16:04:56.628Z,11.60
2022-12-20T16:07:24.047Z,11.60
2022-12-20T16:09:51.391Z,11.60
2022-12-20T16:12:29.540Z,11.50
2022-12-20T16:14:57.285Z,11.50
2022-12-20T16:17:24.788Z,11.50
2022-12-20T16:19:51.737Z,11.40
2022-12-20T16:22:22.462Z,11.40
2022-12-20T16:24:50.186Z,11.30
2022-12-20T16:27:17.487Z,11.30
2022-12-20T16:29:45.377Z,11.30
2022-12-20T16:32:18.575Z,11.20
2022-12-20T16:34:46.235Z,11.20
2022-12-20T16:37:13.896Z,11.20
2022-12-20T16:39:42.651Z,11.10
2022-12-20T16:42:21.988Z,11.10
2022-12-20T16:44:53.551Z,11.10
2022-12-20T16:47:20.937Z,11.00
2022-12-20T16:49:52.825Z,11.00
2022-12-20T16:52:22.539Z,11.00
2022-12-20T16:54:50.537Z,10.90
2022-12-20T16:57:17.544Z,10.90
2022-12-20T16:59:44.819Z,10.90
2022-12-20T17:02:28.886Z,10.90
2022-12-20T17:04:56.491Z,10.80
2022-12-20T17:07:23.754Z,10.80
2022-12-20T17:09:51.574Z,10.80
2022-12-20T17:12:21.955Z,10.70
2022-12-20T17:14:49.707Z,10.70
2022-12-20T17:17:18.191Z,10.70
2022-12-20T17:19:45.656Z,10.70
2022-12-20T17:25:02.861Z,10.60
2022-12-20T17:27:29.985Z,10.60
2022-12-20T17:29:56.998Z,10.60
2022-12-20T17:32:25.592Z,10.60
2022-12-20T17:34:53.375Z,10.60
2022-12-20T17:37:21.560Z,10.60
2022-12-20T17:39:49.565Z,10.60
2022-12-20T17:42:16.936Z,10.60
2022-12-20T17:44:46.908Z,10.60
2022-12-20T17:47:14.173Z,10.50
2022-12-20T17:49:41.137Z,10.60
2022-12-20T17:52:16.179Z,10.60
2022-12-20T17:54:43.439Z,10.50
2022-12-20T17:57:15.508Z,10.60
2022-12-20T17:59:43.737Z,10.50
2022-12-20T18:02:23.374Z,10.50
2022-12-20T18:04:51.367Z,10.50
2022-12-20T18:07:18.546Z,10.50
2022-12-20T18:09:48.209Z,10.50
2022-12-20T18:12:15.192Z,10.50
2022-12-20T18:14:42.565Z,10.50
2022-12-20T18:17:09.558Z,10.60
2022-12-20T18:19:36.896Z,10.50
2022-12-20T18:22:05.143Z,10.50
2022-12-20T18:24:32.204Z,10.50
2022-12-20T18:26:59.478Z,10.60
2022-12-20T18:29:26.319Z,10.60
2022-12-20T18:31:53.337Z,10.60
2022-12-20T18:34:20.520Z,10.60
2022-12-20T18:36:47.391Z,10.60
2022-12-20T18:39:14.889Z,10.60
2022-12-20T18:41:43.787Z,10.60
2022-12-20T18:44:12.085Z,10.60
2022-12-20T18:46:39.447Z,10.60
2022-12-20T18:49:06.567Z,10.60
2022-12-20T18:51:37.002Z,10.60
2022-12-20T18:54:07.126Z,10.60
2022-12-20T18:56:37.953Z,10.60
2022-12-20T18:59:11.342Z,10.50
2022-12-20T19:01:39.929Z,10.70
2022-12-20T19:04:08.051Z,10.60
2022-12-20T19:06:36.943Z,10.50
2022-12-20T19:09:08.162Z,10.60
2022-12-20T19:11:35.531Z,10.60
2022-12-20T19:14:03.753Z,10.50
2022-12-20T19:16:32.912Z,10.60
2022-12-20T19:19:02.500Z,10.60
2022-12-20T19:21:33.233Z,10.60
2022-12-20T19:24:05.210Z,10.60
2022-12-20T19:26:33.014Z,10.60
2022-12-20T19:29:00.376Z,10.60
2022-12-20T19:31:33.391Z,10.90
2022-12-20T19:34:06.049Z,10.70
2022-12-20T19:36:42.021Z,10.70
2022-12-20T19:39:16.020Z,10.70
2022-12-20T19:41:43.413Z,10.80
2022-12-20T19:44:10.672Z,10.80
2022-12-20T19:46:38.590Z,10.80
2022-12-20T19:49:05.927Z,10.80
2022-12-20T19:51:33.773Z,10.70
2022-12-20T19:54:01.023Z,10.80
2022-12-20T19:56:33.646Z,10.80
2022-12-20T19:59:02.343Z,10.70
2022-12-20T20:01:29.718Z,10.70
2022-12-20T20:04:00.107Z,10.60
2022-12-20T20:06:28.050Z,10.60
2022-12-20T20:08:59.607Z,10.60
2022-12-20T20:11:27.798Z,10.60
2022-12-20T20:13:55.723Z,10.60
2022-12-20T20:16:23.298Z,10.60
2022-12-20T20:18:51.099Z,10.60
2022-12-20T20:21:23.159Z,10.60
2022-12-20T20:23:52.626Z,10.60
2022-12-20T20:26:26.588Z,10.60
2022-12-20T20:28:54.092Z,10.60
2022-12-20T20:31:22.384Z,10.50
2022-12-20T20:33:50.561Z,10.70
2022-12-20T20:36:21.622Z,10.80
2022-12-20T20:38:50.313Z,10.60
2022-12-20T20:41:18.112Z,10.70
2022-12-20T20:43:45.237Z,10.70
2022-12-20T20:46:15.273Z,10.70
2022-12-20T20:48:43.125Z,10.70
2022-12-20T20:51:11.173Z,10.60
2022-12-20T20:53:38.314Z,10.70
2022-12-20T20:56:06.977Z,10.70
2022-12-20T20:58:35.379Z,10.70
2022-12-20T21:01:04.691Z,10.70
2022-12-20T21:03:32.547Z,10.50
2022-12-20T21:08:47.141Z,10.60
2022-12-20T21:11:14.374Z,10.50
2022-12-20T21:13:41.614Z,10.50
2022-12-20T21:16:20.261Z,10.40
2022-12-20T21:18:56.914Z,10.40
2022-12-20T21:21:25.595Z,10.40
2022-12-20T21:23:53.966Z,10.40
2022-12-20T21:26:22.894Z,10.40
2022-12-20T21:28:49.834Z,10.40
2022-12-20T21:31:19.514Z,10.40
2022-12-20T21:33:47.269Z,10.40
2022-12-20T21:36:17.734Z,10.40
2022-12-20T21:38:50.510Z,10.40
2022-12-20T21:41:20.152Z,10.40
2022-12-20T21:43:47.191Z,10.40
2022-12-20T21:46:14.709Z,10.40
2022-12-20T21:48:43.817Z,10.40
2022-12-20T21:51:14.637Z,10.40
2022-12-20T21:53:54.334Z,10.40
2022-12-20T21:56:23.527Z,10.40
2022-12-20T21:58:51.601Z,10.40
2022-12-20T22:01:24.462Z,10.40
2022-12-20T22:04:00.206Z,10.40
2022-12-20T22:06:28.145Z,10.40
2022-12-20T22:09:01.526Z,10.40
2022-12-20T22:11:28.694Z,10.70
2022-12-20T22:13:56.564Z,10.40
2022-12-20T22:16:26.923Z,10.30
2022-12-20T22:18:56.284Z,10.30
2022-12-20T22:21:32.219Z,10.30
2022-12-20T22:24:01.300Z,10.30
2022-12-20T22:26:31.412Z,10.30
2022-12-20T22:29:02.372Z,10.30
2022-12-20T22:31:30.497Z,10.30
2022-12-20T22:33:58.837Z,10.50
2022-12-20T22:36:28.654Z,10.30
2022-12-20T22:38:57.210Z,10.20
2022-12-20T22:41:35.043Z,10.30
2022-12-20T22:44:03.106Z,10.30
2022-12-20T22:46:31.058Z,10.40
2022-12-20T22:48:59.233Z,10.40
2022-12-20T22:51:27.860Z,10.40
2022-12-20T22:53:58.125Z,10.40
2022-12-20T22:56:25.641Z,10.50
2022-12-20T22:58:53.304Z,10.40
2022-12-20T23:01:21.700Z,10.50
2022-12-20T23:03:49.086Z,10.60
2022-12-20T23:06:19.425Z,10.50
2022-12-20T23:08:47.417Z,10.50
2022-12-20T23:11:43.474Z,10.50
2022-12-20T23:14:36.126Z,10.50
2022-12-20T23:17:04.941Z,10.50
2022-12-20T23:19:51.457Z,10.50
2022-12-20T23:22:37.804Z,10.50
2022-12-20T23:25:25.470Z,10.50
2022-12-20T23:27:53.944Z,10.50
2022-12-20T23:30:24.761Z,10.50
2022-12-20T23:32:53.600Z,10.40
2022-12-20T23:35:21.503Z,10.40
2022-12-20T23:37:48.894Z,10.40
2022-12-20T23:40:17.421Z,10.40
2022-12-20T23:42:44.671Z,10.30
2022-12-20T23:45:11.960Z,10.30
2022-12-20T23:47:38.925Z,10.20
2022-12-20T23:50:06.720Z,10.20
2022-12-20T23:52:34.079Z,10.20
2022-12-20T23:55:01.002Z,10.10
2022-12-20T23:57:31.240Z,10.00
2022-12-20T23:59:58.627Z,10.00
